Muncy Valley, Pennsylvania
Current Conditions -  °F | °C
As of 3:28 AM on Monday 26 Jan 2015 (Local Time) from KIPT Reporting Station
Light Snow Light Snow  
Wind Chill: 18°   Ceiling: 1500
Heat Index: 18°   Visibility: 1.7mi
Dew Point: 13°   Wind: 3mph
Humidity: 81%   Direction: 60°ENE
Pressure: 29.96"   Gusts: NA
Location:  41.34°N, 76.59°W
Report Text: KIPT 260828Z AUTO 06003KT 1 3/4SM -SN OVC015 M08/M11 A2996 RMK AO2 P0002 T10781106
Loading
Personal Weather Stations






























Interactive Weather Map New forecast layout! Learn more

10-Day Weather Forecast

Advertisements
Track Severe Weather on mobile